sensor_id;sensor_type;location;lat;lon;timestamp;P1;durP1;ratioP1;P2;durP2;ratioP2
6388;SDS011;3227;42.654;23.360;2023-06-24T00:00:46;13.85;;;10.35;;
6388;SDS011;3227;42.654;23.360;2023-06-24T00:03:13;12.75;;;9.85;;
6388;SDS011;3227;42.654;23.360;2023-06-24T00:05:42;18.58;;;10.57;;
6388;SDS011;3227;42.654;23.360;2023-06-24T00:08:14;17.17;;;10.43;;
6388;SDS011;3227;42.654;23.360;2023-06-24T00:10:42;12.98;;;10.38;;
6388;SDS011;3227;42.654;23.360;2023-06-24T00:13:09;13.25;;;10.50;;
6388;SDS011;3227;42.654;23.360;2023-06-24T00:15:37;17.85;;;10.80;;
6388;SDS011;3227;42.654;23.360;2023-06-24T00:18:07;14.85;;;10.85;;
6388;SDS011;3227;42.654;23.360;2023-06-24T00:20:34;17.38;;;9.98;;
6388;SDS011;3227;42.654;23.360;2023-06-24T00:23:00;13.80;;;10.23;;
6388;SDS011;3227;42.654;23.360;2023-06-24T00:25:27;13.80;;;10.40;;
6388;SDS011;3227;42.654;23.360;2023-06-24T00:27:54;14.73;;;10.10;;
6388;SDS011;3227;42.654;23.360;2023-06-24T00:30:21;13.02;;;10.57;;
6388;SDS011;3227;42.654;23.360;2023-06-24T00:32:49;16.23;;;10.25;;
6388;SDS011;3227;42.654;23.360;2023-06-24T00:35:15;16.50;;;10.05;;
6388;SDS011;3227;42.654;23.360;2023-06-24T00:37:42;13.98;;;9.70;;
6388;SDS011;3227;42.654;23.360;2023-06-24T00:40:11;13.93;;;10.20;;
6388;SDS011;3227;42.654;23.360;2023-06-24T00:42:40;14.45;;;10.73;;
6388;SDS011;3227;42.654;23.360;2023-06-24T00:45:07;15.82;;;10.65;;
6388;SDS011;3227;42.654;23.360;2023-06-24T00:47:34;14.68;;;10.35;;
6388;SDS011;3227;42.654;23.360;2023-06-24T00:50:01;13.57;;;10.05;;
6388;SDS011;3227;42.654;23.360;2023-06-24T00:52:29;15.32;;;11.10;;
6388;SDS011;3227;42.654;23.360;2023-06-24T00:54:56;17.42;;;10.55;;
6388;SDS011;3227;42.654;23.360;2023-06-24T00:57:23;15.48;;;10.77;;
6388;SDS011;3227;42.654;23.360;2023-06-24T00:59:49;14.40;;;10.02;;
6388;SDS011;3227;42.654;23.360;2023-06-24T01:02:18;15.10;;;10.60;;
6388;SDS011;3227;42.654;23.360;2023-06-24T01:04:45;19.10;;;10.90;;
6388;SDS011;3227;42.654;23.360;2023-06-24T01:07:13;13.65;;;10.77;;
6388;SDS011;3227;42.654;23.360;2023-06-24T01:09:40;15.43;;;10.40;;
6388;SDS011;3227;42.654;23.360;2023-06-24T01:12:07;14.75;;;11.10;;
6388;SDS011;3227;42.654;23.360;2023-06-24T01:14:35;15.77;;;10.75;;
6388;SDS011;3227;42.654;23.360;2023-06-24T01:17:03;13.10;;;10.43;;
6388;SDS011;3227;42.654;23.360;2023-06-24T01:19:39;15.60;;;11.05;;
6388;SDS011;3227;42.654;23.360;2023-06-24T01:22:11;14.05;;;10.88;;
6388;SDS011;3227;42.654;23.360;2023-06-24T01:24:48;14.02;;;10.70;;
6388;SDS011;3227;42.654;23.360;2023-06-24T01:30:22;15.18;;;11.32;;
6388;SDS011;3227;42.654;23.360;2023-06-24T01:32:58;16.20;;;11.48;;
6388;SDS011;3227;42.654;23.360;2023-06-24T01:35:28;15.27;;;11.30;;
6388;SDS011;3227;42.654;23.360;2023-06-24T01:37:55;18.30;;;11.07;;
6388;SDS011;3227;42.654;23.360;2023-06-24T01:40:25;15.23;;;10.52;;
6388;SDS011;3227;42.654;23.360;2023-06-24T01:42:52;14.65;;;11.10;;
6388;SDS011;3227;42.654;23.360;2023-06-24T01:45:21;17.42;;;10.55;;
6388;SDS011;3227;42.654;23.360;2023-06-24T01:47:49;15.15;;;9.98;;
6388;SDS011;3227;42.654;23.360;2023-06-24T01:50:21;14.68;;;11.38;;
6388;SDS011;3227;42.654;23.360;2023-06-24T01:52:49;14.50;;;11.07;;
6388;SDS011;3227;42.654;23.360;2023-06-24T01:55:18;13.95;;;10.48;;
6388;SDS011;3227;42.654;23.360;2023-06-24T01:57:45;17.35;;;10.95;;
6388;SDS011;3227;42.654;23.360;2023-06-24T02:00:12;12.85;;;10.68;;
6388;SDS011;3227;42.654;23.360;2023-06-24T02:02:39;14.88;;;11.02;;
6388;SDS011;3227;42.654;23.360;2023-06-24T02:05:07;14.95;;;10.55;;
6388;SDS011;3227;42.654;23.360;2023-06-24T02:07:36;15.60;;;10.98;;
6388;SDS011;3227;42.654;23.360;2023-06-24T02:10:04;13.27;;;10.38;;
6388;SDS011;3227;42.654;23.360;2023-06-24T02:12:31;15.85;;;10.70;;
6388;SDS011;3227;42.654;23.360;2023-06-24T02:14:59;14.95;;;10.55;;
6388;SDS011;3227;42.654;23.360;2023-06-24T02:17:25;14.70;;;10.45;;
6388;SDS011;3227;42.654;23.360;2023-06-24T02:19:54;14.38;;;10.25;;
6388;SDS011;3227;42.654;23.360;2023-06-24T02:22:21;13.82;;;9.82;;
6388;SDS011;3227;42.654;23.360;2023-06-24T02:24:49;15.93;;;10.25;;
6388;SDS011;3227;42.654;23.360;2023-06-24T02:27:16;15.25;;;11.02;;
6388;SDS011;3227;42.654;23.360;2023-06-24T02:29:43;20.38;;;11.60;;
6388;SDS011;3227;42.654;23.360;2023-06-24T02:32:10;18.10;;;11.43;;
6388;SDS011;3227;42.654;23.360;2023-06-24T02:34:36;17.73;;;11.10;;
6388;SDS011;3227;42.654;23.360;2023-06-24T02:37:03;18.35;;;11.32;;
6388;SDS011;3227;42.654;23.360;2023-06-24T02:39:30;16.25;;;11.52;;
6388;SDS011;3227;42.654;23.360;2023-06-24T02:41:58;18.02;;;11.77;;
6388;SDS011;3227;42.654;23.360;2023-06-24T02:44:24;16.10;;;12.38;;
6388;SDS011;3227;42.654;23.360;2023-06-24T02:46:51;15.68;;;12.00;;
6388;SDS011;3227;42.654;23.360;2023-06-24T02:49:18;17.92;;;12.20;;
6388;SDS011;3227;42.654;23.360;2023-06-24T02:51:45;18.33;;;12.13;;
6388;SDS011;3227;42.654;23.360;2023-06-24T02:54:11;21.35;;;12.98;;
6388;SDS011;3227;42.654;23.360;2023-06-24T02:56:49;17.23;;;12.10;;
6388;SDS011;3227;42.654;23.360;2023-06-24T02:59:17;20.30;;;12.52;;
6388;SDS011;3227;42.654;23.360;2023-06-24T03:01:47;16.33;;;11.63;;
6388;SDS011;3227;42.654;23.360;2023-06-24T03:04:14;23.52;;;12.63;;
6388;SDS011;3227;42.654;23.360;2023-06-24T03:06:40;19.38;;;11.77;;
6388;SDS011;3227;42.654;23.360;2023-06-24T03:09:07;19.15;;;11.98;;
6388;SDS011;3227;42.654;23.360;2023-06-24T03:11:39;17.27;;;12.80;;
6388;SDS011;3227;42.654;23.360;2023-06-24T03:14:06;19.85;;;12.80;;
6388;SDS011;3227;42.654;23.360;2023-06-24T03:16:34;20.77;;;13.32;;
6388;SDS011;3227;42.654;23.360;2023-06-24T03:19:00;15.75;;;12.07;;
6388;SDS011;3227;42.654;23.360;2023-06-24T03:21:27;18.80;;;12.93;;
6388;SDS011;3227;42.654;23.360;2023-06-24T03:23:54;21.33;;;13.07;;
6388;SDS011;3227;42.654;23.360;2023-06-24T03:26:21;18.55;;;12.00;;
6388;SDS011;3227;42.654;23.360;2023-06-24T03:28:48;21.00;;;12.40;;
6388;SDS011;3227;42.654;23.360;2023-06-24T03:31:14;18.75;;;12.70;;
6388;SDS011;3227;42.654;23.360;2023-06-24T03:33:43;18.92;;;12.10;;
6388;SDS011;3227;42.654;23.360;2023-06-24T03:36:10;17.50;;;12.20;;
6388;SDS011;3227;42.654;23.360;2023-06-24T03:38:37;19.25;;;13.00;;
6388;SDS011;3227;42.654;23.360;2023-06-24T03:41:03;18.27;;;12.05;;
6388;SDS011;3227;42.654;23.360;2023-06-24T03:43:30;16.88;;;12.40;;
6388;SDS011;3227;42.654;23.360;2023-06-24T03:45:56;17.67;;;11.50;;
6388;SDS011;3227;42.654;23.360;2023-06-24T03:48:23;15.93;;;12.40;;
6388;SDS011;3227;42.654;23.360;2023-06-24T03:50:50;19.65;;;13.02;;
6388;SDS011;3227;42.654;23.360;2023-06-24T03:53:17;21.98;;;11.82;;
6388;SDS011;3227;42.654;23.360;2023-06-24T03:55:43;18.88;;;12.38;;
6388;SDS011;3227;42.654;23.360;2023-06-24T03:58:10;19.77;;;11.88;;
6388;SDS011;3227;42.654;23.360;2023-06-24T04:00:36;14.27;;;10.98;;
6388;SDS011;3227;42.654;23.360;2023-06-24T04:03:05;17.05;;;12.02;;
6388;SDS011;3227;42.654;23.360;2023-06-24T04:05:32;17.35;;;11.77;;
6388;SDS011;3227;42.654;23.360;2023-06-24T04:08:00;21.02;;;12.10;;
6388;SDS011;3227;42.654;23.360;2023-06-24T04:10:28;19.80;;;12.38;;
6388;SDS011;3227;42.654;23.360;2023-06-24T04:12:55;25.15;;;12.18;;
6388;SDS011;3227;42.654;23.360;2023-06-24T04:15:21;23.50;;;12.35;;
6388;SDS011;3227;42.654;23.360;2023-06-24T04:17:48;16.70;;;12.05;;
6388;SDS011;3227;42.654;23.360;2023-06-24T04:20:15;15.95;;;11.77;;
6388;SDS011;3227;42.654;23.360;2023-06-24T04:22:41;20.50;;;12.63;;
6388;SDS011;3227;42.654;23.360;2023-06-24T04:25:09;21.73;;;14.27;;
6388;SDS011;3227;42.654;23.360;2023-06-24T04:27:36;20.35;;;12.80;;
6388;SDS011;3227;42.654;23.360;2023-06-24T04:30:03;18.80;;;12.85;;
6388;SDS011;3227;42.654;23.360;2023-06-24T04:32:30;20.98;;;12.85;;
6388;SDS011;3227;42.654;23.360;2023-06-24T04:34:57;20.10;;;13.45;;
6388;SDS011;3227;42.654;23.360;2023-06-24T04:37:24;18.05;;;12.15;;
6388;SDS011;3227;42.654;23.360;2023-06-24T04:39:50;15.13;;;11.23;;
6388;SDS011;3227;42.654;23.360;2023-06-24T04:42:18;16.67;;;11.35;;
6388;SDS011;3227;42.654;23.360;2023-06-24T04:44:44;15.32;;;11.73;;
6388;SDS011;3227;42.654;23.360;2023-06-24T04:47:11;18.30;;;11.75;;
6388;SDS011;3227;42.654;23.360;2023-06-24T04:49:39;18.25;;;12.48;;
6388;SDS011;3227;42.654;23.360;2023-06-24T04:52:06;18.15;;;12.57;;
6388;SDS011;3227;42.654;23.360;2023-06-24T04:54:32;16.17;;;12.43;;
6388;SDS011;3227;42.654;23.360;2023-06-24T04:56:59;18.20;;;11.60;;
6388;SDS011;3227;42.654;23.360;2023-06-24T04:59:27;16.70;;;12.35;;
6388;SDS011;3227;42.654;23.360;2023-06-24T05:01:53;16.70;;;11.85;;
6388;SDS011;3227;42.654;23.360;2023-06-24T05:04:20;16.63;;;11.55;;
6388;SDS011;3227;42.654;23.360;2023-06-24T05:06:46;16.05;;;10.93;;
6388;SDS011;3227;42.654;23.360;2023-06-24T05:09:13;13.68;;;10.80;;
6388;SDS011;3227;42.654;23.360;2023-06-24T05:11:39;13.43;;;11.10;;
6388;SDS011;3227;42.654;23.360;2023-06-24T05:14:06;12.52;;;9.07;;
6388;SDS011;3227;42.654;23.360;2023-06-24T05:16:33;12.82;;;9.35;;
6388;SDS011;3227;42.654;23.360;2023-06-24T05:19:00;12.95;;;10.10;;
6388;SDS011;3227;42.654;23.360;2023-06-24T05:21:26;14.30;;;9.85;;
6388;SDS011;3227;42.654;23.360;2023-06-24T05:23:53;14.90;;;9.95;;
6388;SDS011;3227;42.654;23.360;2023-06-24T05:26:20;12.45;;;9.27;;
6388;SDS011;3227;42.654;23.360;2023-06-24T05:28:46;13.50;;;9.32;;
6388;SDS011;3227;42.654;23.360;2023-06-24T05:31:13;20.65;;;12.82;;
6388;SDS011;3227;42.654;23.360;2023-06-24T05:33:41;16.65;;;9.88;;
6388;SDS011;3227;42.654;23.360;2023-06-24T05:36:07;12.25;;;9.32;;
6388;SDS011;3227;42.654;23.360;2023-06-24T05:38:34;14.75;;;9.77;;
6388;SDS011;3227;42.654;23.360;2023-06-24T05:41:00;14.00;;;9.30;;
6388;SDS011;3227;42.654;23.360;2023-06-24T05:43:28;14.82;;;9.88;;
6388;SDS011;3227;42.654;23.360;2023-06-24T05:45:54;15.18;;;10.35;;
6388;SDS011;3227;42.654;23.360;2023-06-24T05:48:21;16.00;;;12.35;;
6388;SDS011;3227;42.654;23.360;2023-06-24T05:50:49;22.55;;;13.15;;
6388;SDS011;3227;42.654;23.360;2023-06-24T05:53:15;25.75;;;13.40;;
6388;SDS011;3227;42.654;23.360;2023-06-24T05:55:41;20.27;;;14.82;;
6388;SDS011;3227;42.654;23.360;2023-06-24T05:58:08;20.80;;;13.73;;
6388;SDS011;3227;42.654;23.360;2023-06-24T06:00:34;21.42;;;14.05;;
6388;SDS011;3227;42.654;23.360;2023-06-24T06:03:01;20.83;;;14.80;;
6388;SDS011;3227;42.654;23.360;2023-06-24T06:05:27;20.25;;;14.70;;
6388;SDS011;3227;42.654;23.360;2023-06-24T06:07:55;22.77;;;15.50;;
6388;SDS011;3227;42.654;23.360;2023-06-24T06:10:22;23.30;;;15.10;;
6388;SDS011;3227;42.654;23.360;2023-06-24T06:12:48;20.15;;;14.73;;
6388;SDS011;3227;42.654;23.360;2023-06-24T06:15:15;23.48;;;14.02;;
6388;SDS011;3227;42.654;23.360;2023-06-24T06:17:41;25.08;;;14.60;;
6388;SDS011;3227;42.654;23.360;2023-06-24T06:20:08;21.95;;;14.90;;
6388;SDS011;3227;42.654;23.360;2023-06-24T06:22:35;17.70;;;13.73;;
6388;SDS011;3227;42.654;23.360;2023-06-24T06:25:05;21.23;;;14.15;;
6388;SDS011;3227;42.654;23.360;2023-06-24T06:27:31;17.60;;;13.88;;
6388;SDS011;3227;42.654;23.360;2023-06-24T06:29:58;19.60;;;14.02;;
6388;SDS011;3227;42.654;23.360;2023-06-24T06:32:24;21.83;;;15.45;;
6388;SDS011;3227;42.654;23.360;2023-06-24T06:34:51;21.20;;;16.73;;
6388;SDS011;3227;42.654;23.360;2023-06-24T06:37:17;18.10;;;14.93;;
6388;SDS011;3227;42.654;23.360;2023-06-24T06:39:44;19.08;;;14.13;;
6388;SDS011;3227;42.654;23.360;2023-06-24T06:42:11;20.20;;;12.73;;
6388;SDS011;3227;42.654;23.360;2023-06-24T06:44:39;21.42;;;12.57;;
6388;SDS011;3227;42.654;23.360;2023-06-24T06:47:06;17.67;;;13.18;;
6388;SDS011;3227;42.654;23.360;2023-06-24T06:49:33;19.70;;;13.00;;
6388;SDS011;3227;42.654;23.360;2023-06-24T06:51:59;22.83;;;13.57;;
6388;SDS011;3227;42.654;23.360;2023-06-24T06:54:26;18.15;;;13.25;;
6388;SDS011;3227;42.654;23.360;2023-06-24T06:56:52;16.63;;;13.35;;
6388;SDS011;3227;42.654;23.360;2023-06-24T06:59:20;18.08;;;12.73;;
6388;SDS011;3227;42.654;23.360;2023-06-24T07:01:47;17.75;;;13.23;;
6388;SDS011;3227;42.654;23.360;2023-06-24T07:04:13;15.77;;;12.38;;
6388;SDS011;3227;42.654;23.360;2023-06-24T07:06:40;20.55;;;12.73;;
6388;SDS011;3227;42.654;23.360;2023-06-24T07:09:06;16.75;;;12.50;;
6388;SDS011;3227;42.654;23.360;2023-06-24T07:11:33;18.70;;;12.52;;
6388;SDS011;3227;42.654;23.360;2023-06-24T07:13:59;24.50;;;12.40;;
6388;SDS011;3227;42.654;23.360;2023-06-24T07:16:27;15.27;;;12.43;;
6388;SDS011;3227;42.654;23.360;2023-06-24T07:18:54;14.30;;;11.48;;
6388;SDS011;3227;42.654;23.360;2023-06-24T07:21:21;16.35;;;11.07;;
6388;SDS011;3227;42.654;23.360;2023-06-24T07:23:48;14.50;;;11.00;;
6388;SDS011;3227;42.654;23.360;2023-06-24T07:26:14;14.90;;;11.75;;
6388;SDS011;3227;42.654;23.360;2023-06-24T07:28:40;18.05;;;12.05;;
6388;SDS011;3227;42.654;23.360;2023-06-24T07:31:07;13.70;;;11.48;;
6388;SDS011;3227;42.654;23.360;2023-06-24T07:33:35;18.15;;;11.40;;
6388;SDS011;3227;42.654;23.360;2023-06-24T07:36:02;17.60;;;10.98;;
6388;SDS011;3227;42.654;23.360;2023-06-24T07:38:29;13.88;;;11.05;;
6388;SDS011;3227;42.654;23.360;2023-06-24T07:40:55;21.33;;;11.55;;
6388;SDS011;3227;42.654;23.360;2023-06-24T07:43:22;17.05;;;11.38;;
6388;SDS011;3227;42.654;23.360;2023-06-24T07:45:48;17.27;;;12.32;;
6388;SDS011;3227;42.654;23.360;2023-06-24T07:48:15;16.52;;;11.93;;
6388;SDS011;3227;42.654;23.360;2023-06-24T07:50:43;17.92;;;11.82;;
6388;SDS011;3227;42.654;23.360;2023-06-24T07:53:09;17.33;;;12.30;;
6388;SDS011;3227;42.654;23.360;2023-06-24T07:55:36;15.13;;;11.20;;
6388;SDS011;3227;42.654;23.360;2023-06-24T07:58:02;15.98;;;10.70;;
6388;SDS011;3227;42.654;23.360;2023-06-24T08:00:30;19.77;;;11.52;;
6388;SDS011;3227;42.654;23.360;2023-06-24T08:02:56;16.38;;;11.77;;
6388;SDS011;3227;42.654;23.360;2023-06-24T08:05:23;15.32;;;12.13;;
6388;SDS011;3227;42.654;23.360;2023-06-24T08:07:51;17.33;;;11.90;;
6388;SDS011;3227;42.654;23.360;2023-06-24T08:10:18;17.02;;;12.70;;
6388;SDS011;3227;42.654;23.360;2023-06-24T08:12:44;16.85;;;12.43;;
6388;SDS011;3227;42.654;23.360;2023-06-24T08:15:11;16.65;;;10.85;;
6388;SDS011;3227;42.654;23.360;2023-06-24T08:17:38;15.82;;;12.70;;
6388;SDS011;3227;42.654;23.360;2023-06-24T08:20:04;16.70;;;12.38;;
6388;SDS011;3227;42.654;23.360;2023-06-24T08:22:31;19.13;;;12.45;;
6388;SDS011;3227;42.654;23.360;2023-06-24T08:24:59;14.82;;;11.95;;
6388;SDS011;3227;42.654;23.360;2023-06-24T08:27:25;15.80;;;12.07;;
6388;SDS011;3227;42.654;23.360;2023-06-24T08:29:52;18.95;;;12.05;;
6388;SDS011;3227;42.654;23.360;2023-06-24T08:32:18;16.73;;;11.52;;
6388;SDS011;3227;42.654;23.360;2023-06-24T08:34:45;20.80;;;11.70;;
6388;SDS011;3227;42.654;23.360;2023-06-24T08:37:12;14.93;;;11.57;;
6388;SDS011;3227;42.654;23.360;2023-06-24T08:39:38;16.67;;;12.30;;
6388;SDS011;3227;42.654;23.360;2023-06-24T08:42:06;17.02;;;11.88;;
6388;SDS011;3227;42.654;23.360;2023-06-24T08:44:33;18.00;;;12.27;;
6388;SDS011;3227;42.654;23.360;2023-06-24T08:46:59;17.52;;;11.90;;
6388;SDS011;3227;42.654;23.360;2023-06-24T08:49:27;17.63;;;11.65;;
6388;SDS011;3227;42.654;23.360;2023-06-24T08:51:55;25.42;;;15.90;;
6388;SDS011;3227;42.654;23.360;2023-06-24T08:54:24;15.73;;;11.57;;
6388;SDS011;3227;42.654;23.360;2023-06-24T08:56:50;17.30;;;11.68;;
6388;SDS011;3227;42.654;23.360;2023-06-24T08:59:18;14.48;;;11.70;;
6388;SDS011;3227;42.654;23.360;2023-06-24T09:01:45;14.82;;;11.25;;
6388;SDS011;3227;42.654;23.360;2023-06-24T09:04:12;16.15;;;11.30;;
6388;SDS011;3227;42.654;23.360;2023-06-24T09:06:38;18.20;;;11.80;;
6388;SDS011;3227;42.654;23.360;2023-06-24T09:09:05;21.10;;;12.68;;
6388;SDS011;3227;42.654;23.360;2023-06-24T09:11:43;15.40;;;12.05;;
6388;SDS011;3227;42.654;23.360;2023-06-24T09:14:17;13.63;;;11.07;;
6388;SDS011;3227;42.654;23.360;2023-06-24T09:16:46;16.92;;;11.63;;
6388;SDS011;3227;42.654;23.360;2023-06-24T09:19:19;16.77;;;11.88;;
6388;SDS011;3227;42.654;23.360;2023-06-24T09:21:46;14.38;;;11.25;;
6388;SDS011;3227;42.654;23.360;2023-06-24T09:24:12;16.50;;;11.30;;
6388;SDS011;3227;42.654;23.360;2023-06-24T09:26:41;16.27;;;11.65;;
6388;SDS011;3227;42.654;23.360;2023-06-24T09:29:08;16.95;;;11.82;;
6388;SDS011;3227;42.654;23.360;2023-06-24T09:31:34;15.27;;;11.48;;
6388;SDS011;3227;42.654;23.360;2023-06-24T09:34:02;15.05;;;10.52;;
6388;SDS011;3227;42.654;23.360;2023-06-24T09:36:29;16.92;;;11.60;;
6388;SDS011;3227;42.654;23.360;2023-06-24T09:38:55;16.58;;;11.40;;
6388;SDS011;3227;42.654;23.360;2023-06-24T09:41:28;16.27;;;11.70;;
6388;SDS011;3227;42.654;23.360;2023-06-24T09:43:54;14.55;;;11.52;;
6388;SDS011;3227;42.654;23.360;2023-06-24T09:46:24;15.23;;;11.07;;
6388;SDS011;3227;42.654;23.360;2023-06-24T09:48:50;17.08;;;10.88;;
6388;SDS011;3227;42.654;23.360;2023-06-24T09:51:18;16.65;;;10.75;;
6388;SDS011;3227;42.654;23.360;2023-06-24T09:53:45;16.63;;;11.60;;
6388;SDS011;3227;42.654;23.360;2023-06-24T09:56:11;15.70;;;11.05;;
6388;SDS011;3227;42.654;23.360;2023-06-24T09:58:42;16.67;;;11.35;;
6388;SDS011;3227;42.654;23.360;2023-06-24T10:01:09;19.00;;;11.07;;
6388;SDS011;3227;42.654;23.360;2023-06-24T10:03:36;14.48;;;11.63;;
6388;SDS011;3227;42.654;23.360;2023-06-24T10:06:03;17.00;;;11.93;;
6388;SDS011;3227;42.654;23.360;2023-06-24T10:08:32;12.60;;;10.50;;
6388;SDS011;3227;42.654;23.360;2023-06-24T10:10:58;16.48;;;10.63;;
6388;SDS011;3227;42.654;23.360;2023-06-24T10:13:25;14.70;;;10.50;;
6388;SDS011;3227;42.654;23.360;2023-06-24T10:15:54;15.95;;;11.23;;
6388;SDS011;3227;42.654;23.360;2023-06-24T10:18:34;16.02;;;10.95;;
6388;SDS011;3227;42.654;23.360;2023-06-24T10:21:01;12.57;;;9.73;;
6388;SDS011;3227;42.654;23.360;2023-06-24T10:23:32;13.15;;;10.73;;
6388;SDS011;3227;42.654;23.360;2023-06-24T10:25:59;14.07;;;10.35;;
6388;SDS011;3227;42.654;23.360;2023-06-24T10:28:26;12.93;;;9.68;;
6388;SDS011;3227;42.654;23.360;2023-06-24T10:30:56;13.15;;;10.38;;
6388;SDS011;3227;42.654;23.360;2023-06-24T10:33:23;15.13;;;10.00;;
6388;SDS011;3227;42.654;23.360;2023-06-24T10:35:49;13.35;;;10.02;;
6388;SDS011;3227;42.654;23.360;2023-06-24T10:38:18;15.38;;;9.77;;
6388;SDS011;3227;42.654;23.360;2023-06-24T10:40:45;16.88;;;10.05;;
6388;SDS011;3227;42.654;23.360;2023-06-24T10:43:27;15.07;;;9.82;;
6388;SDS011;3227;42.654;23.360;2023-06-24T10:45:55;16.58;;;9.52;;
6388;SDS011;3227;42.654;23.360;2023-06-24T10:48:21;13.77;;;10.63;;
6388;SDS011;3227;42.654;23.360;2023-06-24T10:50:48;12.48;;;9.60;;
6388;SDS011;3227;42.654;23.360;2023-06-24T10:53:15;13.95;;;9.90;;
6388;SDS011;3227;42.654;23.360;2023-06-24T10:55:43;16.92;;;11.65;;
6388;SDS011;3227;42.654;23.360;2023-06-24T10:58:12;16.38;;;9.07;;
6388;SDS011;3227;42.654;23.360;2023-06-24T11:00:39;13.70;;;9.85;;
6388;SDS011;3227;42.654;23.360;2023-06-24T11:03:09;14.13;;;10.63;;
6388;SDS011;3227;42.654;23.360;2023-06-24T11:05:37;12.70;;;8.85;;
6388;SDS011;3227;42.654;23.360;2023-06-24T11:08:04;11.65;;;8.90;;
6388;SDS011;3227;42.654;23.360;2023-06-24T11:10:31;13.88;;;8.98;;
6388;SDS011;3227;42.654;23.360;2023-06-24T11:13:04;14.88;;;8.70;;
6388;SDS011;3227;42.654;23.360;2023-06-24T11:15:33;12.10;;;9.05;;
6388;SDS011;3227;42.654;23.360;2023-06-24T11:18:01;12.68;;;8.00;;
6388;SDS011;3227;42.654;23.360;2023-06-24T11:20:28;13.32;;;7.88;;
6388;SDS011;3227;42.654;23.360;2023-06-24T11:22:57;11.55;;;8.20;;
6388;SDS011;3227;42.654;23.360;2023-06-24T11:25:23;14.98;;;7.97;;
6388;SDS011;3227;42.654;23.360;2023-06-24T11:27:50;11.98;;;8.10;;
6388;SDS011;3227;42.654;23.360;2023-06-24T11:30:17;13.13;;;7.90;;
6388;SDS011;3227;42.654;23.360;2023-06-24T11:32:45;12.00;;;6.85;;
6388;SDS011;3227;42.654;23.360;2023-06-24T11:35:13;11.68;;;7.95;;
6388;SDS011;3227;42.654;23.360;2023-06-24T11:37:40;10.85;;;7.40;;
6388;SDS011;3227;42.654;23.360;2023-06-24T11:40:08;9.80;;;7.25;;
6388;SDS011;3227;42.654;23.360;2023-06-24T11:42:35;11.63;;;8.32;;
6388;SDS011;3227;42.654;23.360;2023-06-24T11:45:02;11.60;;;7.53;;
6388;SDS011;3227;42.654;23.360;2023-06-24T11:47:32;10.95;;;7.63;;
6388;SDS011;3227;42.654;23.360;2023-06-24T11:50:01;12.80;;;8.25;;
6388;SDS011;3227;42.654;23.360;2023-06-24T11:52:40;15.07;;;7.65;;
6388;SDS011;3227;42.654;23.360;2023-06-24T11:55:16;12.52;;;7.88;;
6388;SDS011;3227;42.654;23.360;2023-06-24T11:57:55;13.00;;;8.07;;
6388;SDS011;3227;42.654;23.360;2023-06-24T12:00:22;11.63;;;8.35;;
6388;SDS011;3227;42.654;23.360;2023-06-24T12:02:49;10.45;;;7.60;;
6388;SDS011;3227;42.654;23.360;2023-06-24T12:05:26;14.40;;;8.55;;
6388;SDS011;3227;42.654;23.360;2023-06-24T12:08:00;11.05;;;7.78;;
6388;SDS011;3227;42.654;23.360;2023-06-24T12:10:26;11.32;;;8.50;;
6388;SDS011;3227;42.654;23.360;2023-06-24T12:12:54;12.10;;;8.45;;
6388;SDS011;3227;42.654;23.360;2023-06-24T12:15:21;18.60;;;8.15;;
6388;SDS011;3227;42.654;23.360;2023-06-24T12:17:47;11.68;;;8.00;;
6388;SDS011;3227;42.654;23.360;2023-06-24T12:20:14;12.15;;;8.73;;
6388;SDS011;3227;42.654;23.360;2023-06-24T12:22:43;13.00;;;8.18;;
6388;SDS011;3227;42.654;23.360;2023-06-24T12:25:10;10.80;;;8.07;;
6388;SDS011;3227;42.654;23.360;2023-06-24T12:27:37;11.80;;;8.27;;
6388;SDS011;3227;42.654;23.360;2023-06-24T12:30:05;11.45;;;8.07;;
6388;SDS011;3227;42.654;23.360;2023-06-24T12:32:32;10.65;;;8.20;;
6388;SDS011;3227;42.654;23.360;2023-06-24T12:34:58;19.00;;;8.68;;
6388;SDS011;3227;42.654;23.360;2023-06-24T12:37:25;11.32;;;8.80;;
6388;SDS011;3227;42.654;23.360;2023-06-24T12:39:53;12.40;;;7.97;;
6388;SDS011;3227;42.654;23.360;2023-06-24T12:42:19;12.45;;;8.52;;
6388;SDS011;3227;42.654;23.360;2023-06-24T12:44:45;10.70;;;8.18;;
6388;SDS011;3227;42.654;23.360;2023-06-24T12:47:12;13.63;;;8.10;;
6388;SDS011;3227;42.654;23.360;2023-06-24T12:49:38;11.63;;;8.27;;
6388;SDS011;3227;42.654;23.360;2023-06-24T12:52:05;13.55;;;8.48;;
6388;SDS011;3227;42.654;23.360;2023-06-24T12:54:32;11.20;;;7.93;;
6388;SDS011;3227;42.654;23.360;2023-06-24T12:56:59;12.73;;;8.15;;
6388;SDS011;3227;42.654;23.360;2023-06-24T12:59:26;12.57;;;7.88;;
6388;SDS011;3227;42.654;23.360;2023-06-24T13:01:53;12.82;;;7.88;;
6388;SDS011;3227;42.654;23.360;2023-06-24T13:04:19;16.38;;;7.40;;
6388;SDS011;3227;42.654;23.360;2023-06-24T13:06:47;13.98;;;7.90;;
6388;SDS011;3227;42.654;23.360;2023-06-24T13:09:14;9.88;;;6.97;;
6388;SDS011;3227;42.654;23.360;2023-06-24T13:11:41;11.75;;;7.72;;
6388;SDS011;3227;42.654;23.360;2023-06-24T13:14:09;14.52;;;8.35;;
6388;SDS011;3227;42.654;23.360;2023-06-24T13:16:36;13.32;;;7.63;;
6388;SDS011;3227;42.654;23.360;2023-06-24T13:19:02;11.85;;;7.40;;
6388;SDS011;3227;42.654;23.360;2023-06-24T13:21:29;12.27;;;7.82;;
6388;SDS011;3227;42.654;23.360;2023-06-24T13:23:55;10.82;;;7.10;;
6388;SDS011;3227;42.654;23.360;2023-06-24T13:26:22;9.98;;;7.10;;
6388;SDS011;3227;42.654;23.360;2023-06-24T13:28:49;12.68;;;7.50;;
6388;SDS011;3227;42.654;23.360;2023-06-24T13:31:17;9.77;;;7.13;;
6388;SDS011;3227;42.654;23.360;2023-06-24T13:33:43;15.98;;;7.57;;
6388;SDS011;3227;42.654;23.360;2023-06-24T13:36:11;16.02;;;8.52;;
6388;SDS011;3227;42.654;23.360;2023-06-24T13:38:50;18.42;;;8.70;;
6388;SDS011;3227;42.654;23.360;2023-06-24T13:41:17;18.65;;;8.35;;
6388;SDS011;3227;42.654;23.360;2023-06-24T13:43:44;25.33;;;9.10;;
6388;SDS011;3227;42.654;23.360;2023-06-24T13:46:10;18.88;;;6.82;;
6388;SDS011;3227;42.654;23.360;2023-06-24T13:48:38;20.90;;;8.70;;
6388;SDS011;3227;42.654;23.360;2023-06-24T13:51:04;21.98;;;7.80;;
6388;SDS011;3227;42.654;23.360;2023-06-24T13:53:31;14.65;;;7.70;;
6388;SDS011;3227;42.654;23.360;2023-06-24T13:55:58;16.58;;;6.93;;
6388;SDS011;3227;42.654;23.360;2023-06-24T13:58:24;20.70;;;7.95;;
6388;SDS011;3227;42.654;23.360;2023-06-24T14:00:51;29.88;;;7.40;;
6388;SDS011;3227;42.654;23.360;2023-06-24T14:03:17;18.45;;;7.18;;
6388;SDS011;3227;42.654;23.360;2023-06-24T14:05:45;18.92;;;6.78;;
6388;SDS011;3227;42.654;23.360;2023-06-24T14:08:12;23.45;;;7.53;;
6388;SDS011;3227;42.654;23.360;2023-06-24T14:10:38;14.15;;;6.68;;
6388;SDS011;3227;42.654;23.360;2023-06-24T14:13:05;13.02;;;6.13;;
6388;SDS011;3227;42.654;23.360;2023-06-24T14:15:31;13.00;;;5.55;;
6388;SDS011;3227;42.654;23.360;2023-06-24T14:17:58;13.95;;;5.65;;
6388;SDS011;3227;42.654;23.360;2023-06-24T14:20:24;15.52;;;5.90;;
6388;SDS011;3227;42.654;23.360;2023-06-24T14:22:52;13.80;;;5.63;;
6388;SDS011;3227;42.654;23.360;2023-06-24T14:25:19;11.13;;;6.13;;
6388;SDS011;3227;42.654;23.360;2023-06-24T14:27:45;15.20;;;5.50;;
6388;SDS011;3227;42.654;23.360;2023-06-24T14:30:12;16.17;;;5.70;;
6388;SDS011;3227;42.654;23.360;2023-06-24T14:32:40;12.50;;;5.30;;
6388;SDS011;3227;42.654;23.360;2023-06-24T14:35:07;15.25;;;5.38;;
6388;SDS011;3227;42.654;23.360;2023-06-24T14:37:34;14.18;;;5.70;;
6388;SDS011;3227;42.654;23.360;2023-06-24T14:40:01;12.15;;;5.47;;
6388;SDS011;3227;42.654;23.360;2023-06-24T14:42:28;15.50;;;5.90;;